UKR095 UKBB-UKFF
Flight info
| Callsign | UKR095 |
|---|---|
| Flight time | 1h 0m |
| Altitude | 33000 |
| Route | BASOR M850 NITOK |
| Aircraft | A359/H-SDG/L |
Departure
| Time | 2026-04-16 15:34 |
|---|---|
| Airport | Boryspil International Airport (UKBB) |
Arrival
| Time | 2026-04-16 16:34 |
|---|---|
| Airport | Simferopol International Airport (UKFF) |
| Time | Latitude | Longitude | Altitude | Speed | Heading |
|---|---|---|---|---|---|
| 2026-04-16 15:16 | 50.35472 | 30.89894 | 435 ft | 0 kts | 271° |
| 2026-04-16 15:21 | 50.35471 | 30.89905 | 422 ft | 3 kts | 273° |
| 2026-04-16 15:22 | 50.35470 | 30.89934 | 432 ft | 3 kts | 273° |
| 2026-04-16 15:22 | 50.35470 | 30.89963 | 420 ft | 3 kts | 273° |
| 2026-04-16 15:22 | 50.35469 | 30.89991 | 421 ft | 3 kts | 273° |
| 2026-04-16 15:22 | 50.35468 | 30.90021 | 423 ft | 3 kts | 291° |
| 2026-04-16 15:23 | 50.35457 | 30.90047 | 421 ft | 3 kts | 332° |
| 2026-04-16 15:23 | 50.35438 | 30.90055 | 424 ft | 3 kts | 13° |
| 2026-04-16 15:23 | 50.35421 | 30.90048 | 423 ft | 2 kts | 16° |
| 2026-04-16 15:23 | 50.35418 | 30.90046 | 421 ft | 0 kts | 16° |
| 2026-04-16 15:27 | 50.35419 | 30.90047 | 421 ft | 2 kts | 16° |
| 2026-04-16 15:27 | 50.35444 | 30.90067 | 421 ft | 11 kts | 39° |
| 2026-04-16 15:28 | 50.35451 | 30.90219 | 424 ft | 18 kts | 113° |
| 2026-04-16 15:28 | 50.35326 | 30.90269 | 426 ft | 22 kts | 183° |
| 2026-04-16 15:28 | 50.35185 | 30.90257 | 422 ft | 24 kts | 182° |
| 2026-04-16 15:28 | 50.35016 | 30.90244 | 425 ft | 25 kts | 183° |
| 2026-04-16 15:29 | 50.34838 | 30.90235 | 426 ft | 26 kts | 182° |
| 2026-04-16 15:29 | 50.34654 | 30.90222 | 428 ft | 27 kts | 182° |
| 2026-04-16 15:29 | 50.34460 | 30.90209 | 432 ft | 28 kts | 182° |
| 2026-04-16 15:29 | 50.34259 | 30.90194 | 424 ft | 29 kts | 184° |
| 2026-04-16 15:30 | 50.34053 | 30.90176 | 427 ft | 30 kts | 182° |
| 2026-04-16 15:30 | 50.33842 | 30.90162 | 425 ft | 31 kts | 183° |
| 2026-04-16 15:30 | 50.33626 | 30.90142 | 426 ft | 31 kts | 182° |
| 2026-04-16 15:30 | 50.33409 | 30.90127 | 433 ft | 32 kts | 183° |
| 2026-04-16 15:31 | 50.33185 | 30.90109 | 430 ft | 32 kts | 182° |
| 2026-04-16 15:31 | 50.32958 | 30.90093 | 430 ft | 33 kts | 182° |
| 2026-04-16 15:31 | 50.32728 | 30.90076 | 430 ft | 33 kts | 183° |
| 2026-04-16 15:31 | 50.32544 | 30.90064 | 438 ft | 0 kts | 178° |
| 2026-04-16 15:32 | 50.32517 | 30.90067 | 445 ft | 8 kts | 172° |
| 2026-04-16 15:32 | 50.32457 | 30.90127 | 436 ft | 13 kts | 125° |
| 2026-04-16 15:32 | 50.32458 | 30.90285 | 447 ft | 17 kts | 61° |
| 2026-04-16 15:33 | 50.32589 | 30.90387 | 448 ft | 30 kts | 4° |
| 2026-04-16 15:33 | 50.33005 | 30.90415 | 436 ft | 95 kts | 2° |
| 2026-04-16 15:33 | 50.33888 | 30.90483 | 429 ft | 157 kts | 3° |
| 2026-04-16 15:33 | 50.35033 | 30.90566 | 1025 ft | 163 kts | 1° |
| 2026-04-16 15:34 | 50.36209 | 30.90723 | 1611 ft | 181 kts | 3° |
| 2026-04-16 15:34 | 50.37550 | 30.90933 | 1872 ft | 206 kts | 4° |
| 2026-04-16 15:34 | 50.39069 | 30.91167 | 2076 ft | 233 kts | 4° |
| 2026-04-16 15:34 | 50.40778 | 30.91408 | 2402 ft | 255 kts | 3° |
| 2026-04-16 15:35 | 50.42585 | 30.91599 | 2982 ft | 264 kts | 359° |
| 2026-04-16 15:35 | 50.44439 | 30.91632 | 3628 ft | 269 kts | 358° |
| 2026-04-16 15:35 | 50.46334 | 30.91638 | 4343 ft | 273 kts | 358° |
| 2026-04-16 15:35 | 50.48235 | 30.91865 | 5119 ft | 277 kts | 9° |
| 2026-04-16 15:36 | 50.50015 | 30.92967 | 5850 ft | 282 kts | 32° |
| 2026-04-16 15:36 | 50.51342 | 30.95225 | 6574 ft | 286 kts | 63° |
| 2026-04-16 15:36 | 50.51753 | 30.98226 | 7284 ft | 283 kts | 96° |
| 2026-04-16 15:36 | 50.51133 | 31.01114 | 7915 ft | 281 kts | 127° |
| 2026-04-16 15:37 | 50.49683 | 31.03103 | 8545 ft | 278 kts | 156° |
| 2026-04-16 15:37 | 50.47866 | 31.04113 | 9221 ft | 279 kts | 169° |
| 2026-04-16 15:37 | 50.45945 | 31.04694 | 9869 ft | 282 kts | 175° |
| 2026-04-16 15:37 | 50.43964 | 31.05064 | 10355 ft | 293 kts | 178° |
| 2026-04-16 15:38 | 50.41878 | 31.05378 | 10612 ft | 310 kts | 178° |
| 2026-04-16 15:38 | 50.39670 | 31.05731 | 10851 ft | 327 kts | 177° |
| 2026-04-16 15:38 | 50.37373 | 31.06157 | 11284 ft | 336 kts | 176° |
| 2026-04-16 15:38 | 50.35036 | 31.06649 | 11833 ft | 341 kts | 175° |
| 2026-04-16 15:39 | 50.32672 | 31.07185 | 12438 ft | 345 kts | 175° |
| 2026-04-16 15:39 | 50.30286 | 31.07745 | 12995 ft | 349 kts | 174° |
| 2026-04-16 15:39 | 50.27875 | 31.08317 | 13569 ft | 352 kts | 174° |
| 2026-04-16 15:39 | 50.25441 | 31.08893 | 14113 ft | 356 kts | 174° |
| 2026-04-16 15:40 | 50.22979 | 31.09472 | 14620 ft | 359 kts | 175° |
| 2026-04-16 15:40 | 50.20530 | 31.10043 | 15111 ft | 362 kts | 175° |
| 2026-04-16 15:40 | 50.18020 | 31.10626 | 15574 ft | 367 kts | 175° |
| 2026-04-16 15:40 | 50.15482 | 31.11214 | 16077 ft | 370 kts | 175° |
| 2026-04-16 15:41 | 50.12925 | 31.11804 | 16594 ft | 373 kts | 175° |
| 2026-04-16 15:41 | 50.10347 | 31.12399 | 17106 ft | 376 kts | 175° |
| 2026-04-16 15:41 | 50.07740 | 31.12999 | 17596 ft | 380 kts | 175° |
| 2026-04-16 15:41 | 50.05108 | 31.13604 | 18088 ft | 383 kts | 175° |
| 2026-04-16 15:42 | 50.02461 | 31.14212 | 18530 ft | 387 kts | 175° |
| 2026-04-16 15:42 | 49.99778 | 31.14827 | 18936 ft | 391 kts | 175° |
| 2026-04-16 15:42 | 49.97116 | 31.15439 | 19377 ft | 393 kts | 175° |
| 2026-04-16 15:42 | 49.94404 | 31.16062 | 19811 ft | 395 kts | 175° |
| 2026-04-16 15:43 | 49.91670 | 31.16690 | 20236 ft | 398 kts | 175° |
| 2026-04-16 15:43 | 49.88912 | 31.17321 | 20628 ft | 402 kts | 175° |
| 2026-04-16 15:43 | 49.86133 | 31.17956 | 21024 ft | 405 kts | 175° |
| 2026-04-16 15:43 | 49.83336 | 31.18594 | 21438 ft | 408 kts | 175° |
| 2026-04-16 15:44 | 49.80518 | 31.19236 | 21834 ft | 411 kts | 175° |
| 2026-04-16 15:44 | 49.77681 | 31.19881 | 22243 ft | 413 kts | 175° |
| 2026-04-16 15:44 | 49.74823 | 31.20530 | 22636 ft | 416 kts | 175° |
| 2026-04-16 15:44 | 49.71946 | 31.21183 | 23023 ft | 419 kts | 175° |
| 2026-04-16 15:45 | 49.69049 | 31.21840 | 23415 ft | 422 kts | 175° |
| 2026-04-16 15:45 | 49.66139 | 31.22499 | 23803 ft | 423 kts | 175° |
| 2026-04-16 15:45 | 49.63256 | 31.23151 | 24151 ft | 425 kts | 175° |
| 2026-04-16 15:45 | 49.60307 | 31.23816 | 24321 ft | 432 kts | 175° |
| 2026-04-16 15:46 | 49.57320 | 31.24491 | 24609 ft | 435 kts | 175° |
| 2026-04-16 15:46 | 49.54304 | 31.25172 | 24922 ft | 438 kts | 175° |
| 2026-04-16 15:46 | 49.51281 | 31.25854 | 25211 ft | 441 kts | 175° |
| 2026-04-16 15:46 | 49.48227 | 31.26542 | 25509 ft | 444 kts | 175° |
| 2026-04-16 15:47 | 49.45155 | 31.27232 | 25800 ft | 448 kts | 175° |
| 2026-04-16 15:47 | 49.42052 | 31.27928 | 26119 ft | 451 kts | 175° |
| 2026-04-16 15:47 | 49.38937 | 31.28625 | 26435 ft | 454 kts | 175° |
| 2026-04-16 15:47 | 49.35796 | 31.29328 | 26749 ft | 458 kts | 175° |
| 2026-04-16 15:48 | 49.32623 | 31.30036 | 26983 ft | 464 kts | 175° |
| 2026-04-16 15:48 | 49.29420 | 31.30749 | 27361 ft | 466 kts | 174° |
| 2026-04-16 15:48 | 49.26212 | 31.31464 | 27763 ft | 468 kts | 174° |
| 2026-04-16 15:48 | 49.23013 | 31.32177 | 28099 ft | 472 kts | 174° |
| 2026-04-16 15:49 | 49.19748 | 31.32904 | 28446 ft | 476 kts | 174° |
| 2026-04-16 15:49 | 49.16454 | 31.33636 | 28795 ft | 480 kts | 174° |
| 2026-04-16 15:49 | 49.13129 | 31.34373 | 29142 ft | 484 kts | 174° |
| 2026-04-16 15:49 | 49.09782 | 31.35114 | 29490 ft | 488 kts | 174° |
| 2026-04-16 15:50 | 49.06410 | 31.35860 | 29856 ft | 492 kts | 174° |
| 2026-04-16 15:50 | 49.03011 | 31.36610 | 30202 ft | 495 kts | 174° |
| 2026-04-16 15:50 | 48.99586 | 31.37366 | 30518 ft | 499 kts | 174° |
| 2026-04-16 15:50 | 48.96180 | 31.38116 | 30847 ft | 502 kts | 174° |
| 2026-04-16 15:51 | 48.92724 | 31.38877 | 31327 ft | 501 kts | 174° |
| 2026-04-16 15:51 | 48.89264 | 31.39638 | 31690 ft | 503 kts | 174° |
| 2026-04-16 15:51 | 48.85783 | 31.40400 | 31959 ft | 507 kts | 174° |
| 2026-04-16 15:51 | 48.82275 | 31.41167 | 32237 ft | 511 kts | 174° |
| 2026-04-16 15:52 | 48.78738 | 31.41940 | 32433 ft | 516 kts | 174° |
| 2026-04-16 15:52 | 48.75170 | 31.42718 | 32703 ft | 519 kts | 174° |
| 2026-04-16 15:52 | 48.71589 | 31.43500 | 33012 ft | 522 kts | 174° |
| 2026-04-16 15:52 | 48.69207 | 31.44019 | 33113 ft | 520 kts | 174° |
| 2026-04-16 15:53 | 48.65683 | 31.44790 | 33157 ft | 503 kts | 174° |
| 2026-04-16 15:53 | 48.62261 | 31.45540 | 33154 ft | 491 kts | 174° |
| 2026-04-16 15:53 | 48.58883 | 31.46275 | 33150 ft | 489 kts | 174° |
| 2026-04-16 15:54 | 48.51044 | 31.47967 | 33147 ft | 490 kts | 174° |
| 2026-04-16 15:54 | 48.45426 | 31.49176 | 33149 ft | 490 kts | 174° |
| 2026-04-16 15:55 | 48.38669 | 31.50629 | 33150 ft | 490 kts | 174° |
| 2026-04-16 15:55 | 48.31900 | 31.52082 | 33152 ft | 490 kts | 174° |
| 2026-04-16 15:56 | 48.25140 | 31.53530 | 33156 ft | 490 kts | 174° |
| 2026-04-16 15:56 | 48.18415 | 31.54966 | 33157 ft | 491 kts | 174° |
| 2026-04-16 15:57 | 48.11642 | 31.56408 | 33159 ft | 492 kts | 174° |
| 2026-04-16 15:57 | 48.04859 | 31.57849 | 33160 ft | 492 kts | 174° |
| 2026-04-16 15:58 | 47.98091 | 31.59336 | 33159 ft | 492 kts | 171° |
| 2026-04-16 15:58 | 47.94788 | 31.60715 | 33166 ft | 493 kts | 160° |
| 2026-04-16 15:58 | 47.91640 | 31.62746 | 33179 ft | 493 kts | 155° |
| 2026-04-16 15:59 | 47.82492 | 31.69626 | 33173 ft | 493 kts | 152° |
| 2026-04-16 15:59 | 47.76406 | 31.74348 | 33173 ft | 493 kts | 152° |
| 2026-04-16 16:00 | 47.70281 | 31.79033 | 33161 ft | 494 kts | 152° |
| 2026-04-16 16:00 | 47.64167 | 31.83665 | 33182 ft | 493 kts | 152° |
| 2026-04-16 16:01 | 47.58016 | 31.88148 | 33181 ft | 492 kts | 154° |
| 2026-04-16 16:01 | 47.51861 | 31.92461 | 33183 ft | 492 kts | 154° |
| 2026-04-16 16:02 | 47.45670 | 31.96782 | 33192 ft | 492 kts | 154° |
| 2026-04-16 16:02 | 47.39489 | 32.01110 | 33191 ft | 489 kts | 155° |
| 2026-04-16 16:03 | 47.33346 | 32.05410 | 33193 ft | 489 kts | 154° |
| 2026-04-16 16:03 | 47.27184 | 32.09714 | 33198 ft | 490 kts | 154° |
| 2026-04-16 16:04 | 47.21017 | 32.14011 | 33197 ft | 490 kts | 154° |
| 2026-04-16 16:04 | 47.14854 | 32.18294 | 33203 ft | 488 kts | 155° |
| 2026-04-16 16:05 | 47.08739 | 32.22531 | 33204 ft | 484 kts | 155° |
| 2026-04-16 16:05 | 47.02682 | 32.26718 | 33204 ft | 485 kts | 155° |
| 2026-04-16 16:06 | 46.96568 | 32.30934 | 33205 ft | 486 kts | 155° |
| 2026-04-16 16:06 | 46.90444 | 32.35146 | 33208 ft | 484 kts | 155° |
| 2026-04-16 16:07 | 46.84360 | 32.39320 | 33209 ft | 481 kts | 156° |
| 2026-04-16 16:07 | 46.81336 | 32.41390 | 33025 ft | 486 kts | 156° |
| 2026-04-16 16:07 | 46.78226 | 32.43515 | 32915 ft | 500 kts | 156° |
| 2026-04-16 16:08 | 46.75037 | 32.45690 | 32724 ft | 510 kts | 155° |
| 2026-04-16 16:08 | 46.71821 | 32.47884 | 32472 ft | 510 kts | 155° |
| 2026-04-16 16:08 | 46.68616 | 32.50069 | 32207 ft | 508 kts | 156° |
| 2026-04-16 16:08 | 46.65438 | 32.52287 | 31962 ft | 504 kts | 155° |
| 2026-04-16 16:09 | 46.62319 | 32.54549 | 31705 ft | 499 kts | 154° |
| 2026-04-16 16:09 | 46.59230 | 32.56827 | 31456 ft | 496 kts | 154° |
| 2026-04-16 16:09 | 46.56203 | 32.59071 | 31206 ft | 494 kts | 154° |
| 2026-04-16 16:09 | 46.53146 | 32.61331 | 30945 ft | 491 kts | 154° |
| 2026-04-16 16:10 | 46.50105 | 32.63571 | 30707 ft | 489 kts | 155° |
| 2026-04-16 16:10 | 46.47080 | 32.65789 | 30363 ft | 483 kts | 155° |
| 2026-04-16 16:10 | 46.44093 | 32.67971 | 29805 ft | 479 kts | 155° |
| 2026-04-16 16:10 | 46.41126 | 32.70132 | 29256 ft | 474 kts | 155° |
| 2026-04-16 16:11 | 46.38188 | 32.72268 | 28714 ft | 470 kts | 155° |
| 2026-04-16 16:11 | 46.35280 | 32.74379 | 28178 ft | 466 kts | 155° |
| 2026-04-16 16:11 | 46.32389 | 32.76475 | 27646 ft | 462 kts | 155° |
| 2026-04-16 16:11 | 46.29560 | 32.78525 | 27124 ft | 458 kts | 155° |
| 2026-04-16 16:12 | 46.26687 | 32.80603 | 26596 ft | 454 kts | 155° |
| 2026-04-16 16:12 | 46.23903 | 32.82615 | 26062 ft | 451 kts | 155° |
| 2026-04-16 16:12 | 46.21104 | 32.84636 | 25544 ft | 448 kts | 155° |
| 2026-04-16 16:12 | 46.18324 | 32.86640 | 25009 ft | 445 kts | 155° |
| 2026-04-16 16:13 | 46.15560 | 32.88631 | 24477 ft | 442 kts | 155° |
| 2026-04-16 16:13 | 46.12839 | 32.90695 | 23950 ft | 440 kts | 153° |
| 2026-04-16 16:13 | 46.10209 | 32.92936 | 23365 ft | 438 kts | 150° |
| 2026-04-16 16:13 | 46.07624 | 32.95242 | 22816 ft | 433 kts | 150° |
| 2026-04-16 16:14 | 46.05080 | 32.97531 | 22277 ft | 429 kts | 150° |
| 2026-04-16 16:14 | 46.02570 | 32.99791 | 21733 ft | 424 kts | 150° |
| 2026-04-16 16:14 | 46.00073 | 33.02038 | 21208 ft | 420 kts | 150° |
| 2026-04-16 16:14 | 45.97640 | 33.04225 | 20674 ft | 416 kts | 150° |
| 2026-04-16 16:15 | 45.95195 | 33.06421 | 20161 ft | 412 kts | 150° |
| 2026-04-16 16:15 | 45.92775 | 33.08592 | 19634 ft | 408 kts | 150° |
| 2026-04-16 16:15 | 45.90372 | 33.10745 | 19122 ft | 405 kts | 150° |
| 2026-04-16 16:15 | 45.87992 | 33.12876 | 18600 ft | 402 kts | 150° |
| 2026-04-16 16:16 | 45.85626 | 33.14992 | 18049 ft | 398 kts | 150° |
| 2026-04-16 16:16 | 45.83285 | 33.17084 | 17515 ft | 393 kts | 150° |
| 2026-04-16 16:16 | 45.80980 | 33.19141 | 17011 ft | 388 kts | 150° |
| 2026-04-16 16:16 | 45.78694 | 33.21179 | 16511 ft | 384 kts | 150° |
| 2026-04-16 16:17 | 45.76440 | 33.23187 | 16013 ft | 379 kts | 150° |
| 2026-04-16 16:17 | 45.74207 | 33.25174 | 15522 ft | 375 kts | 150° |
| 2026-04-16 16:17 | 45.71995 | 33.27141 | 15031 ft | 372 kts | 150° |
| 2026-04-16 16:17 | 45.69834 | 33.29060 | 14554 ft | 368 kts | 150° |
| 2026-04-16 16:18 | 45.67668 | 33.30983 | 14052 ft | 365 kts | 150° |
| 2026-04-16 16:18 | 45.65523 | 33.32884 | 13551 ft | 361 kts | 150° |
| 2026-04-16 16:18 | 45.63403 | 33.34762 | 13065 ft | 356 kts | 150° |
| 2026-04-16 16:18 | 45.61309 | 33.36615 | 12581 ft | 351 kts | 150° |
| 2026-04-16 16:19 | 45.59247 | 33.38439 | 12124 ft | 347 kts | 150° |
| 2026-04-16 16:19 | 45.57201 | 33.40247 | 11667 ft | 342 kts | 150° |
| 2026-04-16 16:19 | 45.55190 | 33.42022 | 11209 ft | 338 kts | 149° |
| 2026-04-16 16:19 | 45.53206 | 33.43770 | 10829 ft | 331 kts | 149° |
| 2026-04-16 16:20 | 45.51282 | 33.45467 | 10710 ft | 317 kts | 149° |
| 2026-04-16 16:20 | 45.49446 | 33.47085 | 10608 ft | 303 kts | 149° |
| 2026-04-16 16:20 | 45.47691 | 33.48629 | 10466 ft | 290 kts | 149° |
| 2026-04-16 16:20 | 45.45999 | 33.50117 | 10260 ft | 283 kts | 149° |
| 2026-04-16 16:21 | 45.44315 | 33.51596 | 9895 ft | 289 kts | 149° |
| 2026-04-16 16:21 | 45.42576 | 33.53121 | 9575 ft | 295 kts | 149° |
| 2026-04-16 16:21 | 45.40849 | 33.54638 | 9221 ft | 294 kts | 149° |
| 2026-04-16 16:21 | 45.39108 | 33.56159 | 8988 ft | 291 kts | 150° |
| 2026-04-16 16:22 | 45.37331 | 33.57573 | 8770 ft | 293 kts | 153° |
| 2026-04-16 16:22 | 45.35505 | 33.58825 | 8404 ft | 289 kts | 157° |
| 2026-04-16 16:22 | 45.33682 | 33.59980 | 8046 ft | 285 kts | 157° |
| 2026-04-16 16:22 | 45.31880 | 33.61103 | 7667 ft | 281 kts | 157° |
| 2026-04-16 16:23 | 45.30090 | 33.62216 | 7284 ft | 278 kts | 157° |
| 2026-04-16 16:23 | 45.28317 | 33.63316 | 6904 ft | 276 kts | 157° |
| 2026-04-16 16:23 | 45.26567 | 33.64409 | 6535 ft | 273 kts | 157° |
| 2026-04-16 16:23 | 45.24857 | 33.65480 | 6137 ft | 271 kts | 157° |
| 2026-04-16 16:24 | 45.23130 | 33.66546 | 5763 ft | 269 kts | 157° |
| 2026-04-16 16:24 | 45.21417 | 33.67602 | 5493 ft | 268 kts | 157° |
| 2026-04-16 16:24 | 45.19712 | 33.68656 | 5251 ft | 267 kts | 157° |
| 2026-04-16 16:24 | 45.18010 | 33.69693 | 4997 ft | 266 kts | 157° |
| 2026-04-16 16:25 | 45.16302 | 33.70716 | 4746 ft | 265 kts | 157° |
| 2026-04-16 16:25 | 45.14606 | 33.71719 | 4486 ft | 264 kts | 157° |
| 2026-04-16 16:25 | 45.12902 | 33.72713 | 4228 ft | 264 kts | 157° |
| 2026-04-16 16:25 | 45.11196 | 33.73693 | 4019 ft | 264 kts | 157° |
| 2026-04-16 16:26 | 45.09482 | 33.74658 | 3972 ft | 266 kts | 157° |
| 2026-04-16 16:26 | 45.07753 | 33.75607 | 3972 ft | 266 kts | 158° |
| 2026-04-16 16:26 | 45.06031 | 33.76567 | 3975 ft | 266 kts | 157° |
| 2026-04-16 16:26 | 45.04336 | 33.77521 | 3974 ft | 265 kts | 157° |
| 2026-04-16 16:27 | 45.02659 | 33.78459 | 3980 ft | 251 kts | 157° |
| 2026-04-16 16:27 | 45.01088 | 33.79325 | 3982 ft | 234 kts | 158° |
| 2026-04-16 16:27 | 44.99623 | 33.80129 | 3974 ft | 217 kts | 158° |
| 2026-04-16 16:27 | 44.98272 | 33.80880 | 3981 ft | 203 kts | 157° |
| 2026-04-16 16:28 | 44.96967 | 33.81614 | 3871 ft | 200 kts | 157° |
| 2026-04-16 16:28 | 44.95669 | 33.82339 | 3668 ft | 200 kts | 157° |
| 2026-04-16 16:28 | 44.94416 | 33.83135 | 3458 ft | 199 kts | 144° |
| 2026-04-16 16:28 | 44.93511 | 33.84512 | 3308 ft | 186 kts | 121° |
| 2026-04-16 16:29 | 44.92937 | 33.86105 | 3081 ft | 180 kts | 109° |
| 2026-04-16 16:29 | 44.92505 | 33.87739 | 2817 ft | 176 kts | 107° |
| 2026-04-16 16:29 | 44.92089 | 33.89358 | 2566 ft | 174 kts | 107° |
| 2026-04-16 16:29 | 44.91683 | 33.90963 | 2317 ft | 173 kts | 105° |
| 2026-04-16 16:30 | 44.91810 | 33.92570 | 2070 ft | 165 kts | 56° |
| 2026-04-16 16:30 | 44.92699 | 33.93379 | 1983 ft | 150 kts | 16° |
| 2026-04-16 16:30 | 44.93714 | 33.93671 | 1975 ft | 148 kts | 10° |
| 2026-04-16 16:30 | 44.94724 | 33.93930 | 1971 ft | 148 kts | 11° |
| 2026-04-16 16:31 | 44.95738 | 33.94217 | 1971 ft | 149 kts | 12° |
| 2026-04-16 16:31 | 44.96752 | 33.94530 | 1975 ft | 150 kts | 12° |
| 2026-04-16 16:31 | 44.97766 | 33.94853 | 1865 ft | 147 kts | 13° |
| 2026-04-16 16:31 | 44.98733 | 33.95171 | 1682 ft | 138 kts | 13° |
| 2026-04-16 16:32 | 44.99656 | 33.95478 | 1473 ft | 135 kts | 12° |
| 2026-04-16 16:32 | 45.00555 | 33.95757 | 1286 ft | 133 kts | 11° |
| 2026-04-16 16:32 | 45.01461 | 33.96072 | 1089 ft | 134 kts | 12° |
| 2026-04-16 16:32 | 45.02366 | 33.96386 | 883 ft | 134 kts | 13° |
| 2026-04-16 16:33 | 45.03276 | 33.96702 | 692 ft | 134 kts | 14° |
| 2026-04-16 16:33 | 45.04174 | 33.97014 | 616 ft | 129 kts | 13° |
| 2026-04-16 16:33 | 45.04957 | 33.97283 | 610 ft | 103 kts | 13° |
| 2026-04-16 16:33 | 45.05598 | 33.97501 | 606 ft | 87 kts | 13° |
| 2026-04-16 16:34 | 45.06127 | 33.97683 | 617 ft | 72 kts | 13° |
| 2026-04-16 16:34 | 45.06584 | 33.97840 | 604 ft | 63 kts | 13° |
| 2026-04-16 16:34 | 45.06797 | 33.98007 | 619 ft | 30 kts | 80° |
| 2026-04-16 16:34 | 45.06700 | 33.98136 | 626 ft | 22 kts | 191° |
| 2026-04-16 16:35 | 45.06540 | 33.98094 | 624 ft | 24 kts | 190° |
| 2026-04-16 16:35 | 45.06365 | 33.98049 | 626 ft | 27 kts | 190° |
| 2026-04-16 16:35 | 45.06175 | 33.98000 | 620 ft | 29 kts | 190° |
| 2026-04-16 16:35 | 45.05972 | 33.97947 | 615 ft | 30 kts | 191° |
| 2026-04-16 16:36 | 45.05758 | 33.97889 | 625 ft | 32 kts | 191° |
| 2026-04-16 16:36 | 45.05532 | 33.97828 | 616 ft | 34 kts | 190° |
| 2026-04-16 16:36 | 45.05295 | 33.97765 | 622 ft | 35 kts | 191° |
| 2026-04-16 16:36 | 45.05058 | 33.97683 | 620 ft | 36 kts | 193° |
| 2026-04-16 16:37 | 45.04814 | 33.97599 | 624 ft | 36 kts | 193° |
| 2026-04-16 16:37 | 45.04570 | 33.97515 | 629 ft | 37 kts | 193° |
| 2026-04-16 16:37 | 45.04318 | 33.97429 | 622 ft | 38 kts | 194° |
| 2026-04-16 16:37 | 45.04059 | 33.97340 | 628 ft | 39 kts | 193° |
| 2026-04-16 16:38 | 45.03792 | 33.97249 | 622 ft | 40 kts | 193° |
| 2026-04-16 16:38 | 45.03639 | 33.97197 | 627 ft | 0 kts | 193° |